Time;durP1;ratioP1;P1;durP2;ratioP2;P2;SDS_P1;SDS_P2;PMS_P1;PMS_P2;Temp;Humidity;BMP_temperature;BMP_pressure;BME280_temperature;BME280_humidity;BME280_pressure;Samples;Min_cycle;Max_cycle;Signal;HPM_P1;HPM_P2
2021/11/05 00:00:55;;;;;;;8.13;3.05;;;;;;;7.53;78.04;101962.75;5041634;28;20485;-81
2021/11/05 00:03:22;;;;;;;13.32;3.17;;;;;;;7.50;78.20;101969.69;5056334;28;20068;-80
2021/11/05 00:05:49;;;;;;;6.03;2.75;;;;;;;7.50;78.03;101963.34;5060852;28;20059;-81
2021/11/05 00:08:16;;;;;;;7.93;2.63;;;;;;;7.49;78.08;101962.53;5043598;28;20037;-81
2021/11/05 00:10:44;;;;;;;6.35;2.92;;;;;;;7.49;78.25;101959.78;5039997;28;20106;-80
2021/11/05 00:13:11;;;;;;;9.10;2.60;;;;;;;7.46;78.16;101954.88;5044987;28;20082;-81
2021/11/05 00:15:39;;;;;;;5.05;2.63;;;;;;;7.44;78.24;101965.34;5056860;28;20159;-81
2021/11/05 00:18:06;;;;;;;7.07;2.17;;;;;;;7.43;78.35;101966.47;5062043;28;20051;-80
2021/11/05 00:20:33;;;;;;;8.90;2.22;;;;;;;7.43;78.48;101958.19;5038903;28;20132;-81
2021/11/05 00:23:00;;;;;;;5.15;2.05;;;;;;;7.45;78.19;101955.97;5045352;28;20135;-81
2021/11/05 00:25:26;;;;;;;9.35;2.58;;;;;;;7.46;78.25;101959.53;5042324;28;20163;-81
2021/11/05 00:27:53;;;;;;;10.48;3.15;;;;;;;7.44;78.47;101970.84;5053485;28;20122;-80
2021/11/05 00:30:20;;;;;;;8.75;3.50;;;;;;;7.42;78.59;101964.81;5033909;28;20072;-81
2021/11/05 00:32:47;;;;;;;9.23;3.03;;;;;;;7.42;78.24;101961.22;5054619;28;20068;-81
2021/11/05 00:35:15;;;;;;;10.70;3.60;;;;;;;7.41;78.50;101956.84;5039872;28;21245;-80
2021/11/05 00:37:43;;;;;;;8.18;2.60;;;;;;;7.40;78.50;101960.72;5053487;28;20105;-81
2021/11/05 00:40:11;;;;;;;5.28;2.40;;;;;;;7.40;79.00;101964.28;5060037;28;20072;-81
2021/11/05 00:42:38;;;;;;;7.07;2.70;;;;;;;7.39;78.69;101968.16;5042776;28;20048;-81
2021/11/05 00:45:06;;;;;;;7.25;2.90;;;;;;;7.41;78.70;101968.69;5059793;28;20558;-81
2021/11/05 00:47:33;;;;;;;6.05;2.25;;;;;;;7.41;78.79;101965.13;5058977;28;20071;-81
2021/11/05 00:50:00;;;;;;;9.57;2.88;;;;;;;7.42;78.54;101969.50;5042919;28;20355;-81
2021/11/05 00:52:26;;;;;;;8.05;1.88;;;;;;;7.42;78.74;101964.81;5043906;28;20148;-81
2021/11/05 00:54:53;;;;;;;5.05;2.20;;;;;;;7.42;78.79;101959.31;5062865;28;20079;-81
2021/11/05 00:57:20;;;;;;;8.10;2.65;;;;;;;7.44;78.78;101965.34;5059902;28;20131;-81
2021/11/05 00:59:47;;;;;;;5.50;2.25;;;;;;;7.43;78.98;101969.22;5054728;28;20075;-81
2021/11/05 01:02:14;;;;;;;11.38;2.65;;;;;;;7.45;78.94;101980.75;5041719;28;20437;-81
2021/11/05 01:04:41;;;;;;;8.77;2.17;;;;;;;7.45;78.87;101978.00;5038598;28;20091;-80
2021/11/05 01:07:08;;;;;;;8.73;2.40;;;;;;;7.44;78.86;101981.88;5041213;28;20086;-81
2021/11/05 01:09:35;;;;;;;13.05;2.88;;;;;;;7.44;79.19;101992.09;5057878;28;20075;-82
2021/11/05 01:12:02;;;;;;;7.70;2.40;;;;;;;7.45;79.02;101986.28;5030766;28;20119;-81
2021/11/05 01:14:29;;;;;;;5.68;2.28;;;;;;;7.46;79.15;101990.69;5039526;28;20122;-81
2021/11/05 01:16:58;;;;;;;7.40;2.05;;;;;;;7.43;79.26;101987.69;5055466;28;20039;-80
2021/11/05 01:19:28;;;;;;;13.15;3.88;;;;;;;7.42;79.44;101988.78;5039968;28;20480;-81
2021/11/05 01:21:55;;;;;;;6.32;3.25;;;;;;;7.44;79.39;101975.56;5065143;28;20493;-81
2021/11/05 01:24:22;;;;;;;10.30;3.30;;;;;;;7.45;79.44;101974.44;5061925;28;20040;-81
2021/11/05 01:26:49;;;;;;;11.43;2.30;;;;;;;7.43;79.57;101976.66;5062705;28;20087;-81
2021/11/05 01:29:16;;;;;;;6.35;2.40;;;;;;;7.44;79.65;101976.34;5062342;28;20124;-81
2021/11/05 01:31:43;;;;;;;12.60;2.85;;;;;;;7.45;79.68;101975.25;5039092;28;20506;-81
2021/11/05 01:34:09;;;;;;;6.10;2.40;;;;;;;7.45;79.70;101963.41;5063841;28;20446;-82
2021/11/05 01:36:36;;;;;;;4.00;1.85;;;;;;;7.47;79.83;101964.75;5039309;28;20036;-81
2021/11/05 01:39:03;;;;;;;8.63;2.13;;;;;;;7.47;79.93;101966.69;5037808;28;20133;-81
2021/11/05 01:41:31;;;;;;;8.50;2.58;;;;;;;7.48;79.91;101971.91;5058758;28;20248;-81
2021/11/05 01:43:57;;;;;;;9.00;2.35;;;;;;;7.48;80.03;101969.16;5058881;28;20052;-81
2021/11/05 01:46:24;;;;;;;7.60;2.90;;;;;;;7.49;80.08;101968.06;5046874;28;20094;-80
2021/11/05 01:48:51;;;;;;;10.20;2.58;;;;;;;7.49;79.80;101976.31;5059159;28;20147;-81
2021/11/05 01:51:18;;;;;;;7.57;2.45;;;;;;;7.48;80.10;101974.66;5060260;28;20102;-80
2021/11/05 01:53:46;;;;;;;7.28;2.58;;;;;;;7.47;80.36;101970.25;5059271;28;20176;-81
2021/11/05 01:56:13;;;;;;;10.00;2.72;;;;;;;7.46;80.50;101965.88;5033748;28;20152;-81
2021/11/05 01:58:40;;;;;;;12.43;2.65;;;;;;;7.47;80.55;101959.25;5062413;28;20136;-81
2021/11/05 02:01:07;;;;;;;7.38;3.00;;;;;;;7.47;80.54;101959.25;5061944;28;20044;-81
2021/11/05 02:03:35;;;;;;;8.63;3.15;;;;;;;7.48;80.72;101965.56;5038016;28;20443;-81
2021/11/05 02:06:02;;;;;;;7.00;3.63;;;;;;;7.45;80.55;101961.47;5060140;28;20041;-81
2021/11/05 02:08:29;;;;;;;13.65;2.78;;;;;;;7.43;80.76;101974.72;5061935;28;20090;-81
2021/11/05 02:10:57;;;;;;;9.45;2.53;;;;;;;7.39;81.25;101970.13;5062618;28;20476;-81
2021/11/05 02:13:27;;;;;;;11.35;2.60;;;;;;;7.40;80.87;101975.31;5043874;28;20064;-82
2021/11/05 02:15:56;;;;;;;12.60;4.43;;;;;;;7.39;81.16;101972.88;5049143;28;20068;-81
2021/11/05 02:18:24;;;;;;;6.68;2.63;;;;;;;7.38;81.36;101971.22;5061550;28;20048;-81
2021/11/05 02:20:55;;;;;;;9.38;2.65;;;;;;;7.40;81.25;101969.81;5060901;28;20040;-81
2021/11/05 02:23:24;;;;;;;6.82;2.38;;;;;;;7.42;81.42;101961.22;5060819;28;20072;-82
2021/11/05 02:25:51;;;;;;;6.10;2.65;;;;;;;7.45;81.24;101971.66;5058816;28;20127;-81
2021/11/05 02:28:18;;;;;;;11.52;4.28;;;;;;;7.44;81.47;101978.31;5060706;28;20080;-81
2021/11/05 02:30:45;;;;;;;9.10;2.50;;;;;;;7.44;81.65;101978.31;5052525;28;20831;-81
2021/11/05 02:33:12;;;;;;;5.60;2.20;;;;;;;7.45;81.28;101978.00;5045837;28;20382;-80
2021/11/05 02:35:39;;;;;;;24.15;3.33;;;;;;;7.45;81.56;101983.53;5041849;28;20528;-81
2021/11/05 02:38:06;;;;;;;9.07;2.25;;;;;;;7.44;81.57;101975.56;5058913;28;20140;-81
2021/11/05 02:40:33;;;;;;;11.13;4.43;;;;;;;7.46;81.74;101979.66;5056041;28;20044;-81
2021/11/05 02:43:01;;;;;;;4.93;2.38;;;;;;;7.47;81.78;101975.78;5060507;28;20053;-81
2021/11/05 02:45:28;;;;;;;4.70;2.47;;;;;;;7.49;81.60;101979.06;5058181;28;20041;-80
2021/11/05 02:47:55;;;;;;;7.13;2.10;;;;;;;7.49;81.86;101976.31;5056599;28;20146;-81
2021/11/05 02:50:22;;;;;;;9.85;2.55;;;;;;;7.50;81.72;101972.44;5061675;28;20067;-81
2021/11/05 02:52:49;;;;;;;6.93;2.22;;;;;;;7.50;81.84;101974.34;5062426;28;20377;-81
2021/11/05 02:55:16;;;;;;;5.32;2.00;;;;;;;7.51;81.97;101968.56;5063583;28;20127;-81
2021/11/05 02:57:43;;;;;;;7.18;2.33;;;;;;;7.50;82.06;101977.94;5060055;28;20044;-80
2021/11/05 03:00:13;;;;;;;9.82;2.33;;;;;;;7.51;82.06;101970.50;5039031;28;20052;-80
2021/11/05 03:02:40;;;;;;;8.20;2.20;;;;;;;7.53;82.30;101977.34;5059977;28;20150;-81
2021/11/05 03:05:09;;;;;;;7.60;2.00;;;;;;;7.51;82.24;101982.34;5054925;28;20040;-81
2021/11/05 03:07:36;;;;;;;6.75;2.25;;;;;;;7.52;82.01;101981.22;5038476;28;20118;-81
2021/11/05 03:10:05;;;;;;;6.88;2.92;;;;;;;7.52;82.35;101978.47;5060939;28;20048;-81
2021/11/05 03:12:31;;;;;;;8.55;2.30;;;;;;;7.53;82.29;101971.03;5061843;28;20083;-81
2021/11/05 03:14:58;;;;;;;7.25;2.13;;;;;;;7.55;82.24;101977.06;5046439;28;20579;-81
2021/11/05 03:17:25;;;;;;;7.88;2.30;;;;;;;7.54;82.17;101981.75;5058914;28;20052;-81
2021/11/05 03:19:52;;;;;;;8.27;2.17;;;;;;;7.52;82.21;101975.69;5059843;28;20405;-81
2021/11/05 03:22:19;;;;;;;8.18;3.50;;;;;;;7.53;82.44;101976.53;5058811;28;20044;-81
2021/11/05 03:24:48;;;;;;;4.90;2.75;;;;;;;7.54;82.18;101972.66;5058330;28;20064;-81
2021/11/05 03:27:15;;;;;;;9.25;2.38;;;;;;;7.54;82.43;101969.91;5057135;28;20053;-80
2021/11/05 03:29:42;;;;;;;12.40;4.00;;;;;;;7.54;82.42;101964.41;5061721;28;20041;-81
2021/11/05 03:32:10;;;;;;;10.93;2.78;;;;;;;7.51;82.69;101971.31;5056777;28;20125;-79
2021/11/05 03:34:37;;;;;;;13.88;3.05;;;;;;;7.53;82.61;101973.78;5044694;28;20666;-81
2021/11/05 03:37:04;;;;;;;8.30;2.75;;;;;;;7.53;82.63;101973.78;5040622;28;20080;-81
2021/11/05 03:39:31;;;;;;;13.23;2.80;;;;;;;7.52;82.53;101978.47;5023629;28;20072;-81
2021/11/05 03:41:59;;;;;;;12.88;3.33;;;;;;;7.53;82.53;101982.03;5062696;28;20043;-81
2021/11/05 03:44:27;;;;;;;10.18;3.67;;;;;;;7.51;82.74;101971.31;5057104;28;20053;-81
2021/11/05 03:46:54;;;;;;;5.50;2.55;;;;;;;7.53;82.85;101976.53;5060725;28;20071;-81
2021/11/05 03:49:22;;;;;;;14.55;3.05;;;;;;;7.51;82.70;101976.00;5058352;28;20052;-82
2021/11/05 03:51:48;;;;;;;9.40;2.25;;;;;;;7.53;82.80;101979.28;5060881;28;20041;-81
2021/11/05 03:54:16;;;;;;;8.55;2.75;;;;;;;7.52;82.97;101986.72;5060637;28;20110;-81
2021/11/05 03:56:43;;;;;;;9.40;2.42;;;;;;;7.54;82.67;101989.22;5054390;28;20045;-81
2021/11/05 03:59:09;;;;;;;6.38;2.33;;;;;;;7.54;83.02;101990.03;5050981;28;20044;-81
2021/11/05 04:01:38;;;;;;;12.50;2.80;;;;;;;7.53;82.81;101995.81;5018356;28;20412;-81
2021/11/05 04:04:04;;;;;;;9.00;2.40;;;;;;;7.56;83.03;102000.75;5061110;28;20496;-81
2021/11/05 04:06:32;;;;;;;7.50;2.60;;;;;;;7.56;83.04;101996.06;5059224;28;20386;-80
2021/11/05 04:08:59;;;;;;;8.07;2.22;;;;;;;7.57;82.85;101997.69;5058415;28;20447;-82
2021/11/05 04:11:26;;;;;;;11.00;4.10;;;;;;;7.59;82.94;101994.66;5058250;28;20144;-81
2021/11/05 04:13:53;;;;;;;5.47;2.33;;;;;;;7.57;83.21;101997.69;5054276;28;20099;-81
2021/11/05 04:16:20;;;;;;;5.97;2.80;;;;;;;7.58;82.73;102002.09;5057022;28;20107;-81
2021/11/05 04:18:47;;;;;;;9.73;2.83;;;;;;;7.59;82.80;102001.00;5061301;28;20069;-81
2021/11/05 04:21:17;;;;;;;9.88;3.42;;;;;;;7.56;82.78;102003.50;5059787;28;20043;-80
2021/11/05 04:23:44;;;;;;;4.80;1.95;;;;;;;7.53;82.86;102001.34;5041330;28;20171;-81
2021/11/05 04:26:11;;;;;;;7.97;3.15;;;;;;;7.53;82.96;101993.88;5042826;28;20497;-82
2021/11/05 04:28:38;;;;;;;8.52;2.38;;;;;;;7.55;83.05;102001.84;5064540;28;20037;-81
2021/11/05 04:31:05;;;;;;;10.52;2.35;;;;;;;7.53;82.96;102013.19;5042002;28;20542;-81
2021/11/05 04:33:33;;;;;;;7.85;2.00;;;;;;;7.52;83.19;102008.78;5061795;28;20082;-81
2021/11/05 04:36:02;;;;;;;6.78;2.55;;;;;;;7.52;82.97;102013.50;5044805;28;20408;-81
2021/11/05 04:38:29;;;;;;;6.53;1.90;;;;;;;7.53;83.01;102015.09;5061370;28;20469;-81
2021/11/05 04:40:56;;;;;;;10.65;2.28;;;;;;;7.55;83.08;102015.63;5046335;28;20143;-81
2021/11/05 04:43:23;;;;;;;5.00;2.38;;;;;;;7.56;82.90;102018.09;5046132;28;20076;-81
2021/11/05 04:45:50;;;;;;;5.85;1.90;;;;;;;7.56;83.22;102018.09;5035838;28;20124;-81
2021/11/05 04:48:17;;;;;;;8.07;2.30;;;;;;;7.54;82.99;102017.59;5061827;28;20110;-81
2021/11/05 04:50:45;;;;;;;7.60;2.10;;;;;;;7.55;83.10;102015.63;5053561;28;21668;-83
2021/11/05 04:53:12;;;;;;;9.02;2.22;;;;;;;7.55;83.15;102015.63;5065235;28;20045;-78
2021/11/05 04:55:39;;;;;;;16.60;3.80;;;;;;;7.56;82.92;102018.09;5048815;28;20044;-78
2021/11/05 04:58:06;;;;;;;5.47;1.80;;;;;;;7.55;83.19;102021.13;5057924;28;20095;-78
2021/11/05 05:00:34;;;;;;;5.47;2.03;;;;;;;7.54;83.34;102033.28;5044201;28;20282;-78
2021/11/05 05:03:01;;;;;;;6.07;2.17;;;;;;;7.54;83.22;102025.03;5064266;28;20033;-78
2021/11/05 05:05:28;;;;;;;6.00;1.90;;;;;;;7.54;83.29;102031.38;5057587;28;20602;-78
2021/11/05 05:07:56;;;;;;;6.70;2.50;;;;;;;7.54;83.09;102023.09;5041950;28;20135;-78
2021/11/05 05:10:25;;;;;;;5.80;1.65;;;;;;;7.53;83.62;102024.19;5056196;28;20040;-78
2021/11/05 05:12:53;;;;;;;5.68;1.70;;;;;;;7.54;83.41;102031.38;5060748;28;20041;-78
2021/11/05 05:15:20;;;;;;;5.32;1.77;;;;;;;7.53;83.34;102024.19;5047559;28;20074;-78
2021/11/05 05:17:47;;;;;;;5.38;1.70;;;;;;;7.54;83.51;102022.28;5063247;28;20109;-79
2021/11/05 05:20:16;;;;;;;8.73;2.28;;;;;;;7.54;83.47;102020.34;5040172;28;20548;-78
2021/11/05 05:22:44;;;;;;;7.38;2.28;;;;;;;7.54;83.67;102009.31;5045940;28;20128;-78
2021/11/05 05:25:13;;;;;;;4.65;1.42;;;;;;;7.55;83.41;102008.19;5059788;28;20044;-78
2021/11/05 05:27:42;;;;;;;10.07;1.70;;;;;;;7.55;83.54;102010.13;5062944;28;20067;-78
2021/11/05 05:30:12;;;;;;;8.43;1.55;;;;;;;7.54;83.60;102003.81;5060948;28;20481;-78
2021/11/05 05:32:45;;;;;;;6.63;2.20;;;;;;;7.55;83.68;102007.38;5062469;28;20465;-78
2021/11/05 05:35:13;;;;;;;4.63;1.50;;;;;;;7.54;83.47;102017.59;5060760;28;20649;-78
2021/11/05 05:37:40;;;;;;;7.47;2.10;;;;;;;7.55;83.56;102015.63;5062299;28;20400;-78
2021/11/05 05:40:08;;;;;;;7.70;2.92;;;;;;;7.51;83.88;102022.84;5047119;28;20618;-78
2021/11/05 05:42:35;;;;;;;6.65;2.38;;;;;;;7.52;83.82;102007.97;5062771;28;20056;-78
2021/11/05 05:45:04;;;;;;;4.75;1.90;;;;;;;7.50;83.75;102011.00;5053413;28;20519;-78
2021/11/05 05:47:31;;;;;;;6.30;2.25;;;;;;;7.49;83.98;102014.91;5056563;28;20489;-78
2021/11/05 05:49:58;;;;;;;6.68;2.10;;;;;;;7.48;84.02;102018.75;5043730;28;20065;-78
2021/11/05 05:52:25;;;;;;;14.73;3.95;;;;;;;7.45;84.31;102026.78;5062274;28;20076;-78
2021/11/05 05:54:52;;;;;;;7.90;2.40;;;;;;;7.43;84.39;102024.31;5042417;28;20484;-78
2021/11/05 05:57:19;;;;;;;7.65;2.60;;;;;;;7.45;84.14;102019.34;5045539;28;20475;-78
2021/11/05 05:59:46;;;;;;;5.25;2.00;;;;;;;7.44;84.21;102022.41;5022367;28;20670;-78
2021/11/05 06:02:12;;;;;;;8.35;1.85;;;;;;;7.43;84.23;102034.53;5056574;28;20083;-79
2021/11/05 06:04:39;;;;;;;8.82;2.10;;;;;;;7.39;84.37;102034.28;5040512;28;20076;-83
2021/11/05 06:07:06;;;;;;;6.32;2.08;;;;;;;7.41;84.41;102034.00;5062748;28;20498;-79
2021/11/05 06:09:33;;;;;;;3.72;1.48;;;;;;;7.39;84.40;102037.03;5062428;28;20038;-79
2021/11/05 06:12:00;;;;;;;4.57;1.65;;;;;;;7.35;84.45;102044.25;5038471;28;20497;-78
2021/11/05 06:14:27;;;;;;;6.95;1.33;;;;;;;7.33;84.49;102036.25;5065296;28;20119;-79
2021/11/05 06:16:54;;;;;;;6.45;1.60;;;;;;;7.34;84.60;102048.09;5020600;28;20040;-78
2021/11/05 06:19:21;;;;;;;2.72;1.70;;;;;;;7.34;84.37;102048.09;5057560;28;20474;-78
2021/11/05 06:21:48;;;;;;;4.30;1.30;;;;;;;7.35;84.68;102056.09;5059153;28;20147;-79
2021/11/05 06:24:15;;;;;;;4.05;1.35;;;;;;;7.39;84.63;102061.03;5046282;28;20148;-78
2021/11/05 06:26:41;;;;;;;7.63;1.48;;;;;;;7.41;84.70;102061.56;5061156;28;20128;-79
2021/11/05 06:29:08;;;;;;;3.55;1.40;;;;;;;7.43;84.56;102059.31;5058473;28;20076;-78
2021/11/05 06:31:35;;;;;;;3.40;1.52;;;;;;;7.44;84.87;102061.75;5062162;28;20735;-78
2021/11/05 06:34:03;;;;;;;5.70;1.70;;;;;;;7.46;84.89;102070.59;5054412;28;20150;-78
2021/11/05 06:36:31;;;;;;;7.90;1.30;;;;;;;7.47;85.10;102065.88;5057415;28;20059;-78
2021/11/05 06:38:58;;;;;;;3.20;1.70;;;;;;;7.50;84.73;102063.38;5042720;28;20079;-78
2021/11/05 06:41:26;;;;;;;8.60;1.60;;;;;;;7.52;85.06;102061.13;5062276;28;20479;-78
2021/11/05 06:43:53;;;;;;;8.02;1.77;;;;;;;7.54;84.85;102058.94;5059163;28;20044;-77
2021/11/05 06:46:21;;;;;;;3.97;1.73;;;;;;;7.57;84.68;102052.00;5054661;28;20072;-79
2021/11/05 06:48:48;;;;;;;2.60;1.20;;;;;;;7.58;84.69;102050.88;5052851;28;20032;-78
2021/11/05 06:51:15;;;;;;;4.97;1.73;;;;;;;7.60;84.90;102052.22;5045866;28;20048;-78
2021/11/05 06:53:42;;;;;;;4.15;1.23;;;;;;;7.60;84.70;102052.22;5029741;28;20053;-78
2021/11/05 06:56:10;;;;;;;5.32;2.05;;;;;;;7.59;84.83;102050.59;5059186;28;20109;-78
2021/11/05 06:58:38;;;;;;;7.40;3.30;;;;;;;7.61;84.77;102059.38;5059512;28;20773;-78
2021/11/05 07:01:06;;;;;;;8.63;1.67;;;;;;;7.62;84.75;102050.00;5036651;28;20131;-78
2021/11/05 07:03:36;;;;;;;9.15;1.38;;;;;;;7.63;84.67;102046.13;5024974;28;20052;-78
2021/11/05 07:06:03;;;;;;;5.05;1.38;;;;;;;7.64;84.72;102050.53;5058598;28;20093;-78
2021/11/05 07:08:31;;;;;;;6.43;2.20;;;;;;;7.66;84.60;102056.56;5059842;28;20071;-78
2021/11/05 07:11:00;;;;;;;3.30;1.55;;;;;;;7.68;84.67;102062.59;5035557;28;20036;-78
2021/11/05 07:13:27;;;;;;;8.60;2.15;;;;;;;7.68;84.77;102059.84;5053051;28;20062;-78
2021/11/05 07:15:55;;;;;;;4.85;1.92;;;;;;;7.71;84.75;102058.44;5038279;28;20127;-78
2021/11/05 07:18:22;;;;;;;5.25;1.20;;;;;;;7.74;84.81;102069.69;5042743;28;20330;-78
2021/11/05 07:20:50;;;;;;;3.92;1.50;;;;;;;7.74;84.76;102063.34;5053776;28;20080;-78
2021/11/05 07:23:18;;;;;;;9.07;2.10;;;;;;;7.75;84.91;102056.75;5061306;28;20074;-78
2021/11/05 07:25:46;;;;;;;5.25;1.70;;;;;;;7.76;84.74;102056.44;5054941;28;20127;-78
2021/11/05 07:28:13;;;;;;;10.43;2.20;;;;;;;7.79;84.91;102069.63;5061014;28;20178;-78
2021/11/05 07:30:40;;;;;;;5.18;1.38;;;;;;;7.81;84.72;102064.63;5055898;28;20123;-78
2021/11/05 07:33:06;;;;;;;6.85;1.08;;;;;;;7.80;84.54;102068.53;5064061;28;20041;-77
2021/11/05 07:35:34;;;;;;;3.85;1.20;;;;;;;7.81;84.92;102070.16;5060246;28;20116;-78
2021/11/05 07:38:03;;;;;;;5.53;1.15;;;;;;;7.80;84.79;102068.53;5053305;28;20218;-78
2021/11/05 07:40:31;;;;;;;5.53;1.58;;;;;;;7.82;85.02;102074.56;5055423;28;20465;-78
2021/11/05 07:42:58;;;;;;;8.15;1.33;;;;;;;7.85;84.84;102078.66;5059925;28;20140;-78
2021/11/05 07:45:25;;;;;;;3.05;1.48;;;;;;;7.89;84.87;102087.97;5055933;28;20069;-78
2021/11/05 07:47:56;;;;;;;3.83;1.13;;;;;;;7.91;84.92;102086.59;5059976;28;20044;-78
2021/11/05 07:50:26;;;;;;;8.60;1.30;;;;;;;7.94;84.86;102098.97;5042895;28;20040;-78
2021/11/05 07:52:53;;;;;;;6.35;1.02;;;;;;;7.95;84.81;102098.66;5061600;28;20051;-78
2021/11/05 07:55:21;;;;;;;4.45;1.15;;;;;;;7.94;85.01;102085.97;5058044;28;20036;-78
2021/11/05 07:57:48;;;;;;;7.40;1.73;;;;;;;7.97;84.85;102101.13;5066839;28;20041;-78
2021/11/05 08:00:15;;;;;;;12.75;2.72;;;;;;;7.98;84.78;102092.56;5060411;28;20080;-78
2021/11/05 08:02:43;;;;;;;5.50;1.30;;;;;;;8.01;84.88;102087.56;5059502;28;20048;-78
2021/11/05 08:05:10;;;;;;;8.00;0.93;;;;;;;8.03;84.92;102094.44;5061598;28;20129;-78
2021/11/05 08:07:38;;;;;;;3.95;1.67;;;;;;;8.03;84.92;102101.88;5064237;28;20040;-78
2021/11/05 08:10:06;;;;;;;3.63;1.05;;;;;;;8.04;85.00;102092.50;5058462;28;20076;-78
2021/11/05 08:12:33;;;;;;;7.75;1.67;;;;;;;8.07;85.01;102097.44;5061300;28;20044;-78
2021/11/05 08:15:01;;;;;;;6.47;1.15;;;;;;;8.07;85.04;102097.44;5051310;28;20124;-78
2021/11/05 08:17:28;;;;;;;5.13;1.35;;;;;;;8.06;84.85;102104.06;5054159;28;20047;-78
2021/11/05 08:19:54;;;;;;;6.03;1.25;;;;;;;8.08;85.12;102096.28;5063150;28;20068;-78
2021/11/05 08:22:21;;;;;;;4.60;1.80;;;;;;;8.10;84.79;102110.63;5062607;28;20136;-78
2021/11/05 08:24:51;;;;;;;4.63;1.20;;;;;;;8.11;84.78;102101.22;5046335;28;20076;-78
2021/11/05 08:27:19;;;;;;;4.20;1.27;;;;;;;8.12;85.01;102105.63;5062991;28;20048;-78
2021/11/05 08:29:46;;;;;;;5.88;1.17;;;;;;;8.12;84.87;102098.19;5055681;28;20087;-78
2021/11/05 08:32:14;;;;;;;17.75;4.18;;;;;;;8.14;84.85;102101.47;5061741;28;20488;-78
2021/11/05 08:34:41;;;;;;;6.80;2.05;;;;;;;8.17;84.82;102105.56;5043438;28;20055;-78
2021/11/05 08:37:10;;;;;;;8.32;1.33;;;;;;;8.20;84.80;102118.78;5062379;28;20049;-78
2021/11/05 08:39:38;;;;;;;7.72;1.60;;;;;;;8.19;84.80;102119.88;5044874;28;20040;-78
2021/11/05 08:42:05;;;;;;;9.15;1.15;;;;;;;8.22;84.97;102109.09;5065447;28;20416;-78
2021/11/05 08:44:33;;;;;;;6.20;1.13;;;;;;;8.23;84.73;102109.91;5038619;28;20040;-78
2021/11/05 08:47:01;;;;;;;5.82;1.63;;;;;;;8.25;84.73;102108.50;5039386;28;20159;-78
2021/11/05 08:49:28;;;;;;;5.00;1.15;;;;;;;8.28;84.61;102116.22;5040393;28;20041;-78
2021/11/05 08:51:55;;;;;;;4.35;1.10;;;;;;;8.31;84.64;102125.84;5040464;28;20069;-77
2021/11/05 08:54:24;;;;;;;3.65;1.17;;;;;;;8.32;84.60;102113.66;5030639;28;20099;-81
2021/11/05 08:56:51;;;;;;;2.47;0.90;;;;;;;8.33;84.59;102121.66;5020617;28;20053;-80
2021/11/05 08:59:20;;;;;;;3.42;1.40;;;;;;;8.34;84.55;102120.53;5047945;28;20171;-81
2021/11/05 09:01:48;;;;;;;5.90;1.00;;;;;;;8.35;84.53;102126.88;5027055;28;20075;-82
2021/11/05 09:04:16;;;;;;;7.00;1.40;;;;;;;8.34;84.56;102123.28;5036283;28;20037;-80
2021/11/05 09:06:44;;;;;;;6.05;1.42;;;;;;;8.36;84.53;102123.00;5022882;28;20037;-80
2021/11/05 09:09:11;;;;;;;13.77;2.53;;;;;;;8.39;84.40;102133.44;5046449;28;20092;-84
2021/11/05 09:11:38;;;;;;;6.40;1.83;;;;;;;8.39;84.47;102123.22;5036848;28;20068;-80
2021/11/05 09:14:05;;;;;;;2.95;1.42;;;;;;;8.41;84.38;102133.97;5038807;28;20072;-80
2021/11/05 09:16:33;;;;;;;10.07;2.17;;;;;;;8.45;84.24;102133.06;5041863;28;20580;-81
2021/11/05 09:19:02;;;;;;;6.47;1.80;;;;;;;8.48;84.33;102126.13;5030744;28;20095;-81
2021/11/05 09:21:32;;;;;;;6.60;1.75;;;;;;;8.50;84.31;102126.66;5034038;28;20055;-78
2021/11/05 09:24:00;;;;;;;8.25;1.48;;;;;;;8.51;84.10;102128.31;5038141;28;20037;-78
2021/11/05 09:26:31;;;;;;;6.03;1.48;;;;;;;8.52;84.30;102132.72;5037833;28;20037;-78
2021/11/05 09:28:59;;;;;;;3.22;1.33;;;;;;;8.51;84.14;102131.88;5026755;28;20069;-80
2021/11/05 09:31:26;;;;;;;6.65;1.60;;;;;;;8.54;84.19;102139.56;5041805;28;20064;-80
2021/11/05 09:33:53;;;;;;;5.13;2.88;;;;;;;8.53;84.10;102140.69;5027301;28;20037;-79
2021/11/05 09:36:20;;;;;;;5.15;2.20;;;;;;;8.56;83.88;102153.06;5015007;28;20108;-80
2021/11/05 09:38:48;;;;;;;5.15;2.25;;;;;;;8.56;83.99;102153.06;5033143;28;20133;-80
2021/11/05 09:41:15;;;;;;;3.53;1.70;;;;;;;8.56;84.12;102158.59;5013593;28;20136;-80
2021/11/05 09:43:43;;;;;;;4.28;1.58;;;;;;;8.58;83.94;102159.09;5033846;28;20045;-80
2021/11/05 09:46:10;;;;;;;4.18;1.55;;;;;;;8.60;84.15;102154.13;5055192;28;20484;-80
2021/11/05 09:48:39;;;;;;;4.10;0.93;;;;;;;8.66;84.08;102158.44;5041763;28;20736;-79
2021/11/05 09:51:08;;;;;;;6.03;1.33;;;;;;;8.75;84.09;102155.84;5062026;28;20044;-79
2021/11/05 09:53:37;;;;;;;11.27;4.57;;;;;;;8.83;84.30;102158.75;5041992;28;20473;-80
2021/11/05 09:56:07;;;;;;;6.93;2.85;;;;;;;8.95;84.21;102156.34;5058460;28;20048;-80
2021/11/05 09:58:38;;;;;;;8.90;1.85;;;;;;;9.07;83.85;102159.47;5058012;28;20041;-79
2021/11/05 10:01:06;;;;;;;6.15;2.17;;;;;;;9.15;83.96;102158.81;5059448;28;20205;-80
2021/11/05 10:03:34;;;;;;;5.25;1.85;;;;;;;9.22;83.65;102150.09;5043331;28;20060;-80
2021/11/05 10:06:01;;;;;;;7.50;2.30;;;;;;;9.28;83.59;102148.91;5033958;28;20159;-80
2021/11/05 10:08:34;;;;;;;5.00;1.80;;;;;;;9.34;83.36;102152.41;5055040;28;20381;-80
2021/11/05 10:11:20;;;;;;;3.90;1.30;;;;;;;9.38;83.23;102147.91;5058072;28;20040;-80
2021/11/05 10:13:48;;;;;;;3.65;1.45;;;;;;;9.38;83.24;102143.19;5041966;28;20120;-79
2021/11/05 10:16:19;;;;;;;5.18;1.20;;;;;;;9.42;83.43;102151.72;5050718;28;20091;-80
2021/11/05 10:18:54;;;;;;;4.78;1.38;;;;;;;9.46;82.94;102166.56;5058971;28;20049;-80
2021/11/05 10:21:20;;;;;;;4.32;1.33;;;;;;;9.48;83.16;102158.78;5057160;28;20048;-80
2021/11/05 10:23:47;;;;;;;3.17;1.02;;;;;;;9.48;82.87;102158.78;5039169;28;20079;-80
2021/11/05 10:26:28;;;;;;;7.65;2.30;;;;;;;9.49;82.65;102160.44;5058647;28;20196;-79
2021/11/05 10:28:56;;;;;;;6.22;1.33;;;;;;;9.51;82.90;102166.47;5054066;28;20046;-78
2021/11/05 10:31:44;;;;;;;7.55;1.25;;;;;;;9.54;82.87;102168.63;5056128;28;20060;-78
2021/11/05 10:34:13;;;;;;;7.55;1.85;;;;;;;9.54;82.81;102168.63;5056598;28;20469;-78
2021/11/05 10:36:48;;;;;;;4.22;1.58;;;;;;;9.57;82.44;102168.03;5058161;28;20044;-79
2021/11/05 10:39:16;;;;;;;4.78;1.45;;;;;;;9.64;82.60;102173.97;5056495;28;20600;-78
2021/11/05 10:41:43;;;;;;;2.88;1.10;;;;;;;9.71;82.59;102168.88;5050767;28;20072;-78
2021/11/05 10:44:16;;;;;;;2.95;1.50;;;;;;;9.80;82.35;102178.94;5051235;28;20057;-79
2021/11/05 10:46:43;;;;;;;3.95;0.88;;;;;;;9.85;82.17;102185.50;5050605;28;20674;-78
2021/11/05 10:49:19;;;;;;;3.42;0.55;;;;;;;9.84;81.79;102179.16;5057033;28;20102;-79
2021/11/05 10:51:46;;;;;;;1.95;1.13;;;;;;;9.88;82.15;102185.69;5042180;28;20079;-78
2021/11/05 10:54:18;;;;;;;;;;;;;;;9.87;81.53;102183.25;5065293;28;20500;-78
2021/11/05 10:56:45;;;;;;;6.20;1.50;;;;;;;9.88;81.96;102182.94;5055806;28;19921;-78
2021/11/05 10:59:12;;;;;;;1.83;1.17;;;;;;;9.91;81.97;102162.94;5043146;28;20566;-78
2021/11/05 11:01:42;;;;;;;3.50;1.17;;;;;;;9.93;81.85;102171.75;5054149;28;20500;-79
2021/11/05 11:04:11;;;;;;;4.03;1.30;;;;;;;9.98;82.17;102168.09;5054890;28;21028;-78
2021/11/05 11:06:46;;;;;;;3.35;1.50;;;;;;;9.99;81.76;102156.72;5039547;28;20051;-78
2021/11/05 11:09:16;;;;;;;3.60;1.70;;;;;;;9.96;81.99;102157.31;5057411;28;20074;-77
2021/11/05 11:11:48;;;;;;;8.52;2.25;;;;;;;9.95;82.17;102158.47;5036514;28;20062;-78
2021/11/05 11:14:17;;;;;;;10.95;2.78;;;;;;;9.95;81.93;102164.00;5033863;28;20087;-79
2021/11/05 11:16:53;;;;;;;3.15;1.75;;;;;;;10.00;82.21;102157.53;5038859;28;20087;-77
2021/11/05 11:19:26;;;;;;;7.32;2.20;;;;;;;10.07;81.93;102169.00;5032435;28;20179;-79
2021/11/05 11:21:55;;;;;;;3.80;1.63;;;;;;;10.15;82.06;102162.78;5051245;28;20689;-79
2021/11/05 11:24:25;;;;;;;3.97;1.92;;;;;;;10.28;82.21;102159.19;5051821;28;20042;-79
2021/11/05 11:26:54;;;;;;;4.10;1.70;;;;;;;10.43;82.00;102158.06;5048771;28;20079;-79
2021/11/05 11:29:24;;;;;;;5.15;1.85;;;;;;;10.55;82.11;102152.78;5052582;28;20103;-78
2021/11/05 11:31:56;;;;;;;4.00;1.88;;;;;;;10.62;82.22;102159.53;5024450;28;20037;-79
2021/11/05 11:34:24;;;;;;;4.68;1.63;;;;;;;10.66;81.97;102168.06;5040160;28;20071;-79